sensor_id;sensor_type;location;lat;lon;timestamp;temperature;humidity
13389;DHT22;6764;53.250;10.410;2022-08-21T00:02:27;16.90;99.90
13389;DHT22;6764;53.250;10.410;2022-08-21T00:04:53;16.90;99.90
13389;DHT22;6764;53.250;10.410;2022-08-21T00:07:19;16.80;99.90
13389;DHT22;6764;53.250;10.410;2022-08-21T00:09:46;16.80;99.90
13389;DHT22;6764;53.250;10.410;2022-08-21T00:12:12;16.90;99.90
13389;DHT22;6764;53.250;10.410;2022-08-21T00:14:39;16.80;99.90
13389;DHT22;6764;53.250;10.410;2022-08-21T00:17:05;16.80;99.90
13389;DHT22;6764;53.250;10.410;2022-08-21T00:19:31;16.80;99.90
13389;DHT22;6764;53.250;10.410;2022-08-21T00:21:57;16.80;99.90
13389;DHT22;6764;53.250;10.410;2022-08-21T00:24:23;16.80;99.90
13389;DHT22;6764;53.250;10.410;2022-08-21T00:26:49;16.80;99.90
13389;DHT22;6764;53.250;10.410;2022-08-21T00:29:15;16.70;99.90
13389;DHT22;6764;53.250;10.410;2022-08-21T00:31:42;16.60;99.90
13389;DHT22;6764;53.250;10.410;2022-08-21T00:34:09;16.40;99.90
13389;DHT22;6764;53.250;10.410;2022-08-21T00:36:35;16.30;99.90
13389;DHT22;6764;53.250;10.410;2022-08-21T00:39:02;16.20;99.90
13389;DHT22;6764;53.250;10.410;2022-08-21T00:41:28;16.10;99.90
13389;DHT22;6764;53.250;10.410;2022-08-21T00:43:54;15.90;99.90
13389;DHT22;6764;53.250;10.410;2022-08-21T00:46:20;15.80;99.90
13389;DHT22;6764;53.250;10.410;2022-08-21T00:48:46;15.80;99.90
13389;DHT22;6764;53.250;10.410;2022-08-21T00:51:22;15.70;99.90
13389;DHT22;6764;53.250;10.410;2022-08-21T00:53:57;15.70;99.90
13389;DHT22;6764;53.250;10.410;2022-08-21T00:56:26;15.70;99.90
13389;DHT22;6764;53.250;10.410;2022-08-21T00:58:52;15.70;99.90
13389;DHT22;6764;53.250;10.410;2022-08-21T01:01:19;15.70;99.90
13389;DHT22;6764;53.250;10.410;2022-08-21T01:03:45;15.70;99.90
13389;DHT22;6764;53.250;10.410;2022-08-21T01:06:11;15.70;99.90
13389;DHT22;6764;53.250;10.410;2022-08-21T01:08:37;15.60;99.90
13389;DHT22;6764;53.250;10.410;2022-08-21T01:11:04;15.60;99.90
13389;DHT22;6764;53.250;10.410;2022-08-21T01:13:32;15.60;99.90
13389;DHT22;6764;53.250;10.410;2022-08-21T01:16:03;15.70;99.90
13389;DHT22;6764;53.250;10.410;2022-08-21T01:18:29;15.70;99.90
13389;DHT22;6764;53.250;10.410;2022-08-21T01:21:10;15.70;99.90
13389;DHT22;6764;53.250;10.410;2022-08-21T01:23:39;15.70;99.90
13389;DHT22;6764;53.250;10.410;2022-08-21T01:26:06;15.60;99.90
13389;DHT22;6764;53.250;10.410;2022-08-21T01:28:36;15.60;99.90
13389;DHT22;6764;53.250;10.410;2022-08-21T01:31:05;15.50;99.90
13389;DHT22;6764;53.250;10.410;2022-08-21T01:33:32;15.50;99.90
13389;DHT22;6764;53.250;10.410;2022-08-21T01:35:58;15.40;99.90
13389;DHT22;6764;53.250;10.410;2022-08-21T01:38:23;15.30;99.90
13389;DHT22;6764;53.250;10.410;2022-08-21T01:40:50;15.20;99.90
13389;DHT22;6764;53.250;10.410;2022-08-21T01:43:15;15.10;99.90
13389;DHT22;6764;53.250;10.410;2022-08-21T01:45:41;15.10;99.90
13389;DHT22;6764;53.250;10.410;2022-08-21T01:48:06;15.00;99.90
13389;DHT22;6764;53.250;10.410;2022-08-21T01:50:32;15.00;99.90
13389;DHT22;6764;53.250;10.410;2022-08-21T01:52:58;15.00;99.90
13389;DHT22;6764;53.250;10.410;2022-08-21T01:55:23;15.00;99.90
13389;DHT22;6764;53.250;10.410;2022-08-21T01:57:50;15.00;99.90
13389;DHT22;6764;53.250;10.410;2022-08-21T02:00:19;15.10;99.90
13389;DHT22;6764;53.250;10.410;2022-08-21T02:02:45;15.00;99.90
13389;DHT22;6764;53.250;10.410;2022-08-21T02:05:12;14.90;99.90
13389;DHT22;6764;53.250;10.410;2022-08-21T02:07:49;14.70;99.90
13389;DHT22;6764;53.250;10.410;2022-08-21T02:10:28;14.60;99.90
13389;DHT22;6764;53.250;10.410;2022-08-21T02:12:55;14.60;99.90
13389;DHT22;6764;53.250;10.410;2022-08-21T02:15:21;14.60;99.90
13389;DHT22;6764;53.250;10.410;2022-08-21T02:17:56;14.50;99.90
13389;DHT22;6764;53.250;10.410;2022-08-21T02:20:32;14.50;99.90
13389;DHT22;6764;53.250;10.410;2022-08-21T02:22:58;14.40;99.90
13389;DHT22;6764;53.250;10.410;2022-08-21T02:25:25;14.40;99.90
13389;DHT22;6764;53.250;10.410;2022-08-21T02:27:52;14.40;99.90
13389;DHT22;6764;53.250;10.410;2022-08-21T02:30:26;14.40;99.90
13389;DHT22;6764;53.250;10.410;2022-08-21T02:32:52;14.40;99.90
13389;DHT22;6764;53.250;10.410;2022-08-21T02:35:18;14.40;99.90
13389;DHT22;6764;53.250;10.410;2022-08-21T02:37:49;14.40;99.90
13389;DHT22;6764;53.250;10.410;2022-08-21T02:40:18;14.30;99.90
13389;DHT22;6764;53.250;10.410;2022-08-21T02:42:44;14.30;99.90
13389;DHT22;6764;53.250;10.410;2022-08-21T02:45:12;14.30;99.90
13389;DHT22;6764;53.250;10.410;2022-08-21T02:47:39;14.40;99.90
13389;DHT22;6764;53.250;10.410;2022-08-21T02:50:06;14.40;99.90
13389;DHT22;6764;53.250;10.410;2022-08-21T02:52:32;14.40;99.90
13389;DHT22;6764;53.250;10.410;2022-08-21T02:54:58;14.40;99.90
13389;DHT22;6764;53.250;10.410;2022-08-21T02:57:24;14.40;99.90
13389;DHT22;6764;53.250;10.410;2022-08-21T02:59:50;14.30;99.90
13389;DHT22;6764;53.250;10.410;2022-08-21T03:02:15;14.20;99.90
13389;DHT22;6764;53.250;10.410;2022-08-21T03:04:41;14.10;99.90
13389;DHT22;6764;53.250;10.410;2022-08-21T03:07:07;14.00;99.90
13389;DHT22;6764;53.250;10.410;2022-08-21T03:09:33;14.00;99.90
13389;DHT22;6764;53.250;10.410;2022-08-21T03:11:59;14.00;99.90
13389;DHT22;6764;53.250;10.410;2022-08-21T03:14:25;14.00;99.90
13389;DHT22;6764;53.250;10.410;2022-08-21T03:16:50;14.00;99.90
13389;DHT22;6764;53.250;10.410;2022-08-21T03:19:16;14.00;99.90
13389;DHT22;6764;53.250;10.410;2022-08-21T03:21:42;14.10;99.90
13389;DHT22;6764;53.250;10.410;2022-08-21T03:24:07;14.10;99.90
13389;DHT22;6764;53.250;10.410;2022-08-21T03:26:34;14.10;99.90
13389;DHT22;6764;53.250;10.410;2022-08-21T03:29:00;14.10;99.90
13389;DHT22;6764;53.250;10.410;2022-08-21T03:31:26;14.10;99.90
13389;DHT22;6764;53.250;10.410;2022-08-21T03:33:56;14.10;99.90
13389;DHT22;6764;53.250;10.410;2022-08-21T03:36:22;14.10;99.90
13389;DHT22;6764;53.250;10.410;2022-08-21T03:38:48;14.20;99.90
13389;DHT22;6764;53.250;10.410;2022-08-21T03:41:13;14.20;99.90
13389;DHT22;6764;53.250;10.410;2022-08-21T03:43:39;14.20;99.90
13389;DHT22;6764;53.250;10.410;2022-08-21T03:46:05;14.20;99.90
13389;DHT22;6764;53.250;10.410;2022-08-21T03:48:32;14.20;99.90
13389;DHT22;6764;53.250;10.410;2022-08-21T03:50:58;14.10;99.90
13389;DHT22;6764;53.250;10.410;2022-08-21T03:53:24;14.20;99.90
13389;DHT22;6764;53.250;10.410;2022-08-21T03:55:51;14.20;99.90
13389;DHT22;6764;53.250;10.410;2022-08-21T03:58:21;14.20;99.90
13389;DHT22;6764;53.250;10.410;2022-08-21T04:00:51;14.20;99.90
13389;DHT22;6764;53.250;10.410;2022-08-21T04:03:17;14.20;99.90
13389;DHT22;6764;53.250;10.410;2022-08-21T04:05:43;14.20;99.90
13389;DHT22;6764;53.250;10.410;2022-08-21T04:08:11;14.10;99.90
13389;DHT22;6764;53.250;10.410;2022-08-21T04:10:39;14.10;99.90
13389;DHT22;6764;53.250;10.410;2022-08-21T04:13:06;14.10;99.90
13389;DHT22;6764;53.250;10.410;2022-08-21T04:15:33;14.10;99.90
13389;DHT22;6764;53.250;10.410;2022-08-21T04:17:58;14.10;99.90
13389;DHT22;6764;53.250;10.410;2022-08-21T04:20:24;14.10;99.90
13389;DHT22;6764;53.250;10.410;2022-08-21T04:22:51;14.10;99.90
13389;DHT22;6764;53.250;10.410;2022-08-21T04:25:19;14.10;99.90
13389;DHT22;6764;53.250;10.410;2022-08-21T04:27:45;14.10;99.90
13389;DHT22;6764;53.250;10.410;2022-08-21T04:30:11;14.10;99.90
13389;DHT22;6764;53.250;10.410;2022-08-21T04:32:38;14.10;99.90
13389;DHT22;6764;53.250;10.410;2022-08-21T04:35:11;14.10;99.90
13389;DHT22;6764;53.250;10.410;2022-08-21T04:37:37;14.00;99.90
13389;DHT22;6764;53.250;10.410;2022-08-21T04:40:04;14.00;99.90
13389;DHT22;6764;53.250;10.410;2022-08-21T04:42:30;13.90;99.90
13389;DHT22;6764;53.250;10.410;2022-08-21T04:44:56;13.90;99.90
13389;DHT22;6764;53.250;10.410;2022-08-21T04:47:23;13.90;99.90
13389;DHT22;6764;53.250;10.410;2022-08-21T04:49:50;13.90;99.90
13389;DHT22;6764;53.250;10.410;2022-08-21T04:52:19;14.00;99.90
13389;DHT22;6764;53.250;10.410;2022-08-21T04:54:47;14.00;99.90
13389;DHT22;6764;53.250;10.410;2022-08-21T04:57:15;14.00;99.90
13389;DHT22;6764;53.250;10.410;2022-08-21T04:59:45;14.10;99.90
13389;DHT22;6764;53.250;10.410;2022-08-21T05:02:12;14.10;99.90
13389;DHT22;6764;53.250;10.410;2022-08-21T05:04:42;14.10;99.90
13389;DHT22;6764;53.250;10.410;2022-08-21T05:07:12;14.20;99.90
13389;DHT22;6764;53.250;10.410;2022-08-21T05:09:40;14.20;99.90
13389;DHT22;6764;53.250;10.410;2022-08-21T05:12:06;14.20;99.90
13389;DHT22;6764;53.250;10.410;2022-08-21T05:14:32;14.10;99.90
13389;DHT22;6764;53.250;10.410;2022-08-21T05:16:58;14.10;99.90
13389;DHT22;6764;53.250;10.410;2022-08-21T05:19:24;14.10;99.90
13389;DHT22;6764;53.250;10.410;2022-08-21T05:21:50;14.10;99.90
13389;DHT22;6764;53.250;10.410;2022-08-21T05:24:15;14.10;99.90
13389;DHT22;6764;53.250;10.410;2022-08-21T05:26:41;14.10;99.90
13389;DHT22;6764;53.250;10.410;2022-08-21T05:29:07;14.10;99.90
13389;DHT22;6764;53.250;10.410;2022-08-21T05:31:33;14.20;99.90
13389;DHT22;6764;53.250;10.410;2022-08-21T05:33:59;14.20;99.90
13389;DHT22;6764;53.250;10.410;2022-08-21T05:36:25;14.20;99.90
13389;DHT22;6764;53.250;10.410;2022-08-21T05:38:51;14.20;99.90
13389;DHT22;6764;53.250;10.410;2022-08-21T05:41:16;14.20;99.90
13389;DHT22;6764;53.250;10.410;2022-08-21T05:43:42;14.30;99.90
13389;DHT22;6764;53.250;10.410;2022-08-21T05:46:08;14.40;99.90
13389;DHT22;6764;53.250;10.410;2022-08-21T05:48:35;14.50;99.90
13389;DHT22;6764;53.250;10.410;2022-08-21T05:51:18;14.60;99.90
13389;DHT22;6764;53.250;10.410;2022-08-21T05:53:44;14.70;99.90
13389;DHT22;6764;53.250;10.410;2022-08-21T05:56:11;14.90;99.90
13389;DHT22;6764;53.250;10.410;2022-08-21T05:58:37;15.10;99.90
13389;DHT22;6764;53.250;10.410;2022-08-21T06:01:04;15.30;99.90
13389;DHT22;6764;53.250;10.410;2022-08-21T06:03:34;15.50;99.90
13389;DHT22;6764;53.250;10.410;2022-08-21T06:06:02;15.60;99.90
13389;DHT22;6764;53.250;10.410;2022-08-21T06:08:28;15.70;99.90
13389;DHT22;6764;53.250;10.410;2022-08-21T06:10:56;15.80;99.90
13389;DHT22;6764;53.250;10.410;2022-08-21T06:13:23;15.90;99.90
13389;DHT22;6764;53.250;10.410;2022-08-21T06:15:49;16.10;99.90
13389;DHT22;6764;53.250;10.410;2022-08-21T06:18:16;16.20;99.90
13389;DHT22;6764;53.250;10.410;2022-08-21T06:20:41;16.30;99.90
13389;DHT22;6764;53.250;10.410;2022-08-21T06:23:07;16.50;99.90
13389;DHT22;6764;53.250;10.410;2022-08-21T06:25:33;16.70;99.90
13389;DHT22;6764;53.250;10.410;2022-08-21T06:28:09;17.00;99.90
13389;DHT22;6764;53.250;10.410;2022-08-21T06:30:36;17.10;99.90
13389;DHT22;6764;53.250;10.410;2022-08-21T06:33:02;17.30;99.90
13389;DHT22;6764;53.250;10.410;2022-08-21T06:35:28;17.60;99.90
13389;DHT22;6764;53.250;10.410;2022-08-21T06:37:55;17.80;99.90
13389;DHT22;6764;53.250;10.410;2022-08-21T06:40:21;18.40;99.90
13389;DHT22;6764;53.250;10.410;2022-08-21T06:42:46;19.10;99.90
13389;DHT22;6764;53.250;10.410;2022-08-21T06:45:12;19.20;99.90
13389;DHT22;6764;53.250;10.410;2022-08-21T06:47:38;19.10;99.90
13389;DHT22;6764;53.250;10.410;2022-08-21T06:50:04;18.90;99.90
13389;DHT22;6764;53.250;10.410;2022-08-21T06:52:30;18.70;99.90
13389;DHT22;6764;53.250;10.410;2022-08-21T06:54:55;18.70;99.90
13389;DHT22;6764;53.250;10.410;2022-08-21T06:57:21;18.60;99.90
13389;DHT22;6764;53.250;10.410;2022-08-21T06:59:47;18.70;99.90
13389;DHT22;6764;53.250;10.410;2022-08-21T07:02:12;18.70;99.90
13389;DHT22;6764;53.250;10.410;2022-08-21T07:04:38;18.70;99.90
13389;DHT22;6764;53.250;10.410;2022-08-21T07:07:04;19.20;99.90
13389;DHT22;6764;53.250;10.410;2022-08-21T07:09:29;20.60;99.90
13389;DHT22;6764;53.250;10.410;2022-08-21T07:11:55;22.20;99.90
13389;DHT22;6764;53.250;10.410;2022-08-21T07:14:21;23.30;99.90
13389;DHT22;6764;53.250;10.410;2022-08-21T07:16:48;24.20;99.90
13389;DHT22;6764;53.250;10.410;2022-08-21T07:19:14;25.60;99.30
13389;DHT22;6764;53.250;10.410;2022-08-21T07:21:40;26.90;96.40
13389;DHT22;6764;53.250;10.410;2022-08-21T07:24:06;28.00;94.10
13389;DHT22;6764;53.250;10.410;2022-08-21T07:26:31;29.20;91.50
13389;DHT22;6764;53.250;10.410;2022-08-21T07:28:57;29.70;88.50
13389;DHT22;6764;53.250;10.410;2022-08-21T07:31:24;30.30;85.80
13389;DHT22;6764;53.250;10.410;2022-08-21T07:33:50;30.10;84.30
13389;DHT22;6764;53.250;10.410;2022-08-21T07:36:16;29.50;84.50
13389;DHT22;6764;53.250;10.410;2022-08-21T07:38:42;29.90;83.90
13389;DHT22;6764;53.250;10.410;2022-08-21T07:41:28;30.40;82.60
13389;DHT22;6764;53.250;10.410;2022-08-21T07:43:55;31.30;80.10
13389;DHT22;6764;53.250;10.410;2022-08-21T07:46:22;31.50;78.80
13389;DHT22;6764;53.250;10.410;2022-08-21T07:48:48;31.80;78.20
13389;DHT22;6764;53.250;10.410;2022-08-21T07:51:15;32.50;75.50
13389;DHT22;6764;53.250;10.410;2022-08-21T07:53:42;32.90;74.20
13389;DHT22;6764;53.250;10.410;2022-08-21T07:56:12;32.40;72.70
13389;DHT22;6764;53.250;10.410;2022-08-21T07:58:38;31.50;73.40
13389;DHT22;6764;53.250;10.410;2022-08-21T08:01:05;30.40;75.20
13389;DHT22;6764;53.250;10.410;2022-08-21T08:03:31;29.40;76.90
13389;DHT22;6764;53.250;10.410;2022-08-21T08:05:57;28.50;78.00
13389;DHT22;6764;53.250;10.410;2022-08-21T08:08:24;28.10;81.50
13389;DHT22;6764;53.250;10.410;2022-08-21T08:10:49;29.00;79.20
13389;DHT22;6764;53.250;10.410;2022-08-21T08:13:16;30.20;76.70
13389;DHT22;6764;53.250;10.410;2022-08-21T08:15:41;31.10;71.90
13389;DHT22;6764;53.250;10.410;2022-08-21T08:18:07;32.00;69.10
13389;DHT22;6764;53.250;10.410;2022-08-21T08:20:33;32.60;67.30
13389;DHT22;6764;53.250;10.410;2022-08-21T08:22:59;33.00;66.60
13389;DHT22;6764;53.250;10.410;2022-08-21T08:25:26;33.70;65.10
13389;DHT22;6764;53.250;10.410;2022-08-21T08:27:51;34.10;63.70
13389;DHT22;6764;53.250;10.410;2022-08-21T08:30:19;34.40;62.70
13389;DHT22;6764;53.250;10.410;2022-08-21T08:32:46;34.90;62.00
13389;DHT22;6764;53.250;10.410;2022-08-21T08:35:12;35.30;60.90
13389;DHT22;6764;53.250;10.410;2022-08-21T08:37:38;35.70;60.20
13389;DHT22;6764;53.250;10.410;2022-08-21T08:40:06;35.70;58.70
13389;DHT22;6764;53.250;10.410;2022-08-21T08:42:34;36.20;57.80
13389;DHT22;6764;53.250;10.410;2022-08-21T08:45:11;36.40;57.20
13389;DHT22;6764;53.250;10.410;2022-08-21T08:47:51;36.20;57.30
13389;DHT22;6764;53.250;10.410;2022-08-21T08:53:19;35.20;58.00
13389;DHT22;6764;53.250;10.410;2022-08-21T08:55:46;34.20;59.00
13389;DHT22;6764;53.250;10.410;2022-08-21T08:58:22;33.50;60.20
13389;DHT22;6764;53.250;10.410;2022-08-21T09:00:51;32.90;61.50
13389;DHT22;6764;53.250;10.410;2022-08-21T09:03:17;32.50;63.00
13389;DHT22;6764;53.250;10.410;2022-08-21T09:05:49;32.70;63.20
13389;DHT22;6764;53.250;10.410;2022-08-21T09:08:41;33.40;62.00
13389;DHT22;6764;53.250;10.410;2022-08-21T09:14:26;33.00;62.70
13389;DHT22;6764;53.250;10.410;2022-08-21T09:20:19;33.00;62.30
13389;DHT22;6764;53.250;10.410;2022-08-21T09:25:43;35.00;60.30
13389;DHT22;6764;53.250;10.410;2022-08-21T09:28:11;35.70;58.70
13389;DHT22;6764;53.250;10.410;2022-08-21T09:30:41;35.10;58.80
13389;DHT22;6764;53.250;10.410;2022-08-21T09:33:07;34.20;60.00
13389;DHT22;6764;53.250;10.410;2022-08-21T09:35:33;33.50;61.00
13389;DHT22;6764;53.250;10.410;2022-08-21T09:38:04;33.00;62.20
13389;DHT22;6764;53.250;10.410;2022-08-21T09:40:33;32.40;63.40
13389;DHT22;6764;53.250;10.410;2022-08-21T09:43:06;33.10;64.00
13389;DHT22;6764;53.250;10.410;2022-08-21T09:45:33;34.50;61.00
13389;DHT22;6764;53.250;10.410;2022-08-21T09:48:21;35.80;58.90
13389;DHT22;6764;53.250;10.410;2022-08-21T09:50:49;36.90;57.50
13389;DHT22;6764;53.250;10.410;2022-08-21T09:53:22;38.20;55.90
13389;DHT22;6764;53.250;10.410;2022-08-21T09:56:02;38.80;54.40
13389;DHT22;6764;53.250;10.410;2022-08-21T09:58:49;39.00;53.60
13389;DHT22;6764;53.250;10.410;2022-08-21T10:01:21;39.20;53.40
13389;DHT22;6764;53.250;10.410;2022-08-21T10:03:47;39.00;53.50
13389;DHT22;6764;53.250;10.410;2022-08-21T10:06:26;37.80;52.70
13389;DHT22;6764;53.250;10.410;2022-08-21T10:09:07;37.70;53.20
13389;DHT22;6764;53.250;10.410;2022-08-21T10:11:34;38.50;51.90
13389;DHT22;6764;53.250;10.410;2022-08-21T10:17:05;39.00;51.80
13389;DHT22;6764;53.250;10.410;2022-08-21T10:27:31;40.10;50.60
13389;DHT22;6764;53.250;10.410;2022-08-21T10:30:03;39.70;50.20
13389;DHT22;6764;53.250;10.410;2022-08-21T10:35:29;37.20;52.00
13389;DHT22;6764;53.250;10.410;2022-08-21T10:38:35;35.50;54.10
13389;DHT22;6764;53.250;10.410;2022-08-21T10:41:13;34.10;56.10
13389;DHT22;6764;53.250;10.410;2022-08-21T10:46:42;34.90;56.00
13389;DHT22;6764;53.250;10.410;2022-08-21T10:49:22;34.10;56.70
13389;DHT22;6764;53.250;10.410;2022-08-21T11:00:22;33.60;57.50
13389;DHT22;6764;53.250;10.410;2022-08-21T11:05:40;32.30;59.40
13389;DHT22;6764;53.250;10.410;2022-08-21T11:08:12;33.00;59.70
13389;DHT22;6764;53.250;10.410;2022-08-21T11:10:44;33.80;58.70
13389;DHT22;6764;53.250;10.410;2022-08-21T11:13:26;33.80;58.10
13389;DHT22;6764;53.250;10.410;2022-08-21T11:16:21;33.10;58.20
13389;DHT22;6764;53.250;10.410;2022-08-21T11:18:57;32.10;59.50
13389;DHT22;6764;53.250;10.410;2022-08-21T11:21:34;31.30;60.90
13389;DHT22;6764;53.250;10.410;2022-08-21T11:26:54;30.70;63.30
13389;DHT22;6764;53.250;10.410;2022-08-21T11:29:51;32.60;61.00
13389;DHT22;6764;53.250;10.410;2022-08-21T11:35:53;35.00;56.60
13389;DHT22;6764;53.250;10.410;2022-08-21T11:38:35;36.10;55.60
13389;DHT22;6764;53.250;10.410;2022-08-21T11:41:18;36.50;53.40
13389;DHT22;6764;53.250;10.410;2022-08-21T11:43:48;35.10;54.40
13389;DHT22;6764;53.250;10.410;2022-08-21T11:52:07;32.00;57.70
13389;DHT22;6764;53.250;10.410;2022-08-21T11:54:49;31.40;57.30
13389;DHT22;6764;53.250;10.410;2022-08-21T11:57:41;31.00;58.10
13389;DHT22;6764;53.250;10.410;2022-08-21T12:00:20;30.60;59.60
13389;DHT22;6764;53.250;10.410;2022-08-21T12:02:56;30.30;61.00
13389;DHT22;6764;53.250;10.410;2022-08-21T12:05:31;30.00;61.50
13389;DHT22;6764;53.250;10.410;2022-08-21T12:08:30;29.80;61.80
13389;DHT22;6764;53.250;10.410;2022-08-21T12:13:30;29.60;61.60
13389;DHT22;6764;53.250;10.410;2022-08-21T12:16:15;29.60;61.00
13389;DHT22;6764;53.250;10.410;2022-08-21T12:21:47;29.40;61.00
13389;DHT22;6764;53.250;10.410;2022-08-21T12:26:52;29.30;61.50
13389;DHT22;6764;53.250;10.410;2022-08-21T12:29:32;29.30;61.90
13389;DHT22;6764;53.250;10.410;2022-08-21T12:32:18;29.20;62.10
13389;DHT22;6764;53.250;10.410;2022-08-21T12:34:52;29.10;62.20
13389;DHT22;6764;53.250;10.410;2022-08-21T12:37:38;29.10;62.60
13389;DHT22;6764;53.250;10.410;2022-08-21T12:40:13;29.00;61.60
13389;DHT22;6764;53.250;10.410;2022-08-21T12:42:47;28.90;61.90
13389;DHT22;6764;53.250;10.410;2022-08-21T12:45:33;28.90;61.30
13389;DHT22;6764;53.250;10.410;2022-08-21T12:50:49;28.80;60.90
13389;DHT22;6764;53.250;10.410;2022-08-21T12:53:29;28.80;61.70
13389;DHT22;6764;53.250;10.410;2022-08-21T12:55:56;28.80;62.10
13389;DHT22;6764;53.250;10.410;2022-08-21T12:58:27;28.90;62.60
13389;DHT22;6764;53.250;10.410;2022-08-21T13:01:03;28.90;62.00
13389;DHT22;6764;53.250;10.410;2022-08-21T13:03:31;28.90;62.40
13389;DHT22;6764;53.250;10.410;2022-08-21T13:06:02;28.80;63.00
13389;DHT22;6764;53.250;10.410;2022-08-21T13:08:29;28.80;63.50
13389;DHT22;6764;53.250;10.410;2022-08-21T13:11:05;28.80;64.30
13389;DHT22;6764;53.250;10.410;2022-08-21T13:13:33;28.80;64.80
13389;DHT22;6764;53.250;10.410;2022-08-21T13:16:04;28.70;64.70
13389;DHT22;6764;53.250;10.410;2022-08-21T13:18:35;28.70;65.10
13389;DHT22;6764;53.250;10.410;2022-08-21T13:21:11;28.70;65.20
13389;DHT22;6764;53.250;10.410;2022-08-21T13:23:38;28.80;64.80
13389;DHT22;6764;53.250;10.410;2022-08-21T13:26:15;28.60;63.80
13389;DHT22;6764;53.250;10.410;2022-08-21T13:28:41;28.50;63.30
13389;DHT22;6764;53.250;10.410;2022-08-21T13:31:09;28.40;64.10
13389;DHT22;6764;53.250;10.410;2022-08-21T13:33:39;28.40;65.20
13389;DHT22;6764;53.250;10.410;2022-08-21T13:36:11;28.40;65.50
13389;DHT22;6764;53.250;10.410;2022-08-21T13:38:41;28.30;64.80
13389;DHT22;6764;53.250;10.410;2022-08-21T13:41:29;28.20;64.90
13389;DHT22;6764;53.250;10.410;2022-08-21T13:44:01;28.30;65.50
13389;DHT22;6764;53.250;10.410;2022-08-21T13:46:30;28.20;65.20
13389;DHT22;6764;53.250;10.410;2022-08-21T13:48:59;28.00;65.20
13389;DHT22;6764;53.250;10.410;2022-08-21T13:51:25;27.90;65.60
13389;DHT22;6764;53.250;10.410;2022-08-21T13:53:52;27.80;66.40
13389;DHT22;6764;53.250;10.410;2022-08-21T13:56:31;27.90;66.10
13389;DHT22;6764;53.250;10.410;2022-08-21T13:58:58;27.70;66.20
13389;DHT22;6764;53.250;10.410;2022-08-21T14:01:32;27.70;66.60
13389;DHT22;6764;53.250;10.410;2022-08-21T14:04:14;27.60;66.70
13389;DHT22;6764;53.250;10.410;2022-08-21T14:06:42;27.70;66.90
13389;DHT22;6764;53.250;10.410;2022-08-21T14:09:11;27.80;66.80
13389;DHT22;6764;53.250;10.410;2022-08-21T14:11:37;27.80;66.30
13389;DHT22;6764;53.250;10.410;2022-08-21T14:14:33;27.80;66.30
13389;DHT22;6764;53.250;10.410;2022-08-21T14:17:03;27.50;67.00
13389;DHT22;6764;53.250;10.410;2022-08-21T14:19:36;27.40;67.00
13389;DHT22;6764;53.250;10.410;2022-08-21T14:30:31;27.40;67.40
13389;DHT22;6764;53.250;10.410;2022-08-21T14:32:57;27.50;67.70
13389;DHT22;6764;53.250;10.410;2022-08-21T14:35:23;27.40;67.50
13389;DHT22;6764;53.250;10.410;2022-08-21T14:37:49;27.50;67.40
13389;DHT22;6764;53.250;10.410;2022-08-21T14:40:20;27.60;67.00
13389;DHT22;6764;53.250;10.410;2022-08-21T14:42:46;27.60;66.90
13389;DHT22;6764;53.250;10.410;2022-08-21T14:45:27;27.60;66.60
13389;DHT22;6764;53.250;10.410;2022-08-21T14:47:54;27.60;67.00
13389;DHT22;6764;53.250;10.410;2022-08-21T14:50:20;27.50;67.20
13389;DHT22;6764;53.250;10.410;2022-08-21T14:52:45;27.60;67.40
13389;DHT22;6764;53.250;10.410;2022-08-21T14:55:12;27.70;66.50
13389;DHT22;6764;53.250;10.410;2022-08-21T14:57:46;27.70;66.70
13389;DHT22;6764;53.250;10.410;2022-08-21T15:00:19;27.60;66.80
13389;DHT22;6764;53.250;10.410;2022-08-21T15:02:45;27.60;67.00
13389;DHT22;6764;53.250;10.410;2022-08-21T15:05:12;27.50;66.70
13389;DHT22;6764;53.250;10.410;2022-08-21T15:07:38;27.50;66.60
13389;DHT22;6764;53.250;10.410;2022-08-21T15:10:05;27.60;66.30
13389;DHT22;6764;53.250;10.410;2022-08-21T15:12:31;27.70;66.10
13389;DHT22;6764;53.250;10.410;2022-08-21T15:14:57;27.80;66.30
13389;DHT22;6764;53.250;10.410;2022-08-21T15:17:23;27.90;65.70
13389;DHT22;6764;53.250;10.410;2022-08-21T15:19:48;28.10;65.80
13389;DHT22;6764;53.250;10.410;2022-08-21T15:22:14;28.20;64.00
13389;DHT22;6764;53.250;10.410;2022-08-21T15:24:40;28.20;64.20
13389;DHT22;6764;53.250;10.410;2022-08-21T15:27:07;28.00;65.10
13389;DHT22;6764;53.250;10.410;2022-08-21T15:29:34;27.80;65.80
13389;DHT22;6764;53.250;10.410;2022-08-21T15:32:03;27.70;66.70
13389;DHT22;6764;53.250;10.410;2022-08-21T15:34:39;27.50;67.40
13389;DHT22;6764;53.250;10.410;2022-08-21T15:37:05;27.20;68.60
13389;DHT22;6764;53.250;10.410;2022-08-21T15:39:34;27.10;68.90
13389;DHT22;6764;53.250;10.410;2022-08-21T15:42:00;27.10;69.10
13389;DHT22;6764;53.250;10.410;2022-08-21T15:44:27;27.10;68.90
13389;DHT22;6764;53.250;10.410;2022-08-21T15:46:53;27.10;68.60
13389;DHT22;6764;53.250;10.410;2022-08-21T15:49:19;27.20;68.50
13389;DHT22;6764;53.250;10.410;2022-08-21T15:51:45;27.20;67.90
13389;DHT22;6764;53.250;10.410;2022-08-21T15:54:10;27.20;67.80
13389;DHT22;6764;53.250;10.410;2022-08-21T15:56:38;27.10;67.90
13389;DHT22;6764;53.250;10.410;2022-08-21T15:59:14;27.00;68.30
13389;DHT22;6764;53.250;10.410;2022-08-21T16:01:41;26.90;68.50
13389;DHT22;6764;53.250;10.410;2022-08-21T16:04:07;26.80;69.00
13389;DHT22;6764;53.250;10.410;2022-08-21T16:06:33;26.80;69.40
13389;DHT22;6764;53.250;10.410;2022-08-21T16:08:59;26.80;69.30
13389;DHT22;6764;53.250;10.410;2022-08-21T16:11:26;26.90;69.20
13389;DHT22;6764;53.250;10.410;2022-08-21T16:13:52;26.90;68.90
13389;DHT22;6764;53.250;10.410;2022-08-21T16:16:20;26.80;68.80
13389;DHT22;6764;53.250;10.410;2022-08-21T16:18:47;26.80;70.50
13389;DHT22;6764;53.250;10.410;2022-08-21T16:21:14;26.80;68.90
13389;DHT22;6764;53.250;10.410;2022-08-21T16:23:40;26.90;68.00
13389;DHT22;6764;53.250;10.410;2022-08-21T16:26:07;26.80;67.70
13389;DHT22;6764;53.250;10.410;2022-08-21T16:28:35;26.90;68.20
13389;DHT22;6764;53.250;10.410;2022-08-21T16:31:02;26.90;68.60
13389;DHT22;6764;53.250;10.410;2022-08-21T16:33:43;26.90;67.70
13389;DHT22;6764;53.250;10.410;2022-08-21T16:36:11;26.80;68.10
13389;DHT22;6764;53.250;10.410;2022-08-21T16:38:37;26.80;68.20
13389;DHT22;6764;53.250;10.410;2022-08-21T16:41:08;26.70;68.80
13389;DHT22;6764;53.250;10.410;2022-08-21T16:43:35;26.60;69.20
13389;DHT22;6764;53.250;10.410;2022-08-21T16:46:03;26.50;70.20
13389;DHT22;6764;53.250;10.410;2022-08-21T16:48:29;26.50;70.00
13389;DHT22;6764;53.250;10.410;2022-08-21T16:50:56;26.40;69.20
13389;DHT22;6764;53.250;10.410;2022-08-21T16:53:22;26.40;69.60
13389;DHT22;6764;53.250;10.410;2022-08-21T16:55:50;26.30;69.60